createdAt,value
2019-01-30T00:00:16.204Z,7.40
2019-01-30T00:03:19.559Z,6.23
2019-01-30T00:06:23.013Z,6.37
2019-01-30T00:09:26.404Z,5.60
2019-01-30T00:12:29.760Z,5.97
2019-01-30T00:15:34.099Z,5.70
2019-01-30T00:18:49.893Z,5.50
2019-01-30T00:21:53.263Z,5.07
2019-01-30T00:24:56.639Z,6.30
2019-01-30T00:28:00.003Z,5.97
2019-01-30T00:31:03.378Z,5.70
2019-01-30T00:34:06.742Z,5.77
2019-01-30T00:37:10.139Z,6.50
2019-01-30T00:40:15.836Z,6.13
2019-01-30T00:43:19.486Z,5.90
2019-01-30T00:46:22.855Z,6.10
2019-01-30T00:49:26.226Z,5.23
2019-01-30T00:52:29.598Z,5.97
2019-01-30T00:55:32.995Z,5.90
2019-01-30T00:58:36.353Z,5.40
2019-01-30T01:01:39.725Z,5.60
2019-01-30T01:04:43.093Z,5.70
2019-01-30T01:07:46.903Z,5.90
2019-01-30T01:10:50.264Z,5.50
2019-01-30T01:13:53.643Z,6.10
2019-01-30T01:16:57.013Z,5.00
2019-01-30T01:20:00.690Z,5.97
2019-01-30T01:23:05.480Z,5.17
2019-01-30T01:26:08.832Z,5.83
2019-01-30T01:29:12.278Z,6.03
2019-01-30T01:32:15.659Z,5.80
2019-01-30T01:35:19.185Z,5.90
2019-01-30T01:38:22.558Z,5.50
2019-01-30T01:41:25.932Z,5.77
2019-01-30T01:44:29.312Z,6.10
2019-01-30T01:47:32.696Z,5.27
2019-01-30T01:50:55.412Z,5.87
2019-01-30T01:53:58.790Z,5.37
2019-01-30T01:57:02.157Z,5.60
2019-01-30T02:00:34.952Z,5.20
2019-01-30T02:03:30.125Z,5.50
2019-01-30T02:06:33.505Z,5.37
2019-01-30T02:09:36.884Z,5.43
2019-01-30T02:12:40.328Z,5.70
2019-01-30T02:15:43.701Z,5.80
2019-01-30T02:18:47.079Z,5.60
2019-01-30T02:21:50.443Z,5.37
2019-01-30T02:24:53.839Z,5.47
2019-01-30T02:27:57.386Z,5.53
2019-01-30T02:31:00.769Z,5.37
2019-01-30T02:37:33.398Z,5.30
2019-01-30T02:40:36.795Z,5.50
2019-01-30T02:43:40.165Z,5.20
2019-01-30T02:46:43.555Z,5.13
2019-01-30T02:49:46.919Z,5.20
2019-01-30T02:52:50.296Z,4.73
2019-01-30T02:55:53.692Z,5.07
2019-01-30T02:58:57.306Z,4.63
2019-01-30T03:05:50.969Z,5.00
2019-01-30T03:08:54.320Z,5.30
2019-01-30T03:11:57.705Z,5.17
2019-01-30T03:15:01.078Z,4.80
2019-01-30T03:18:04.525Z,4.63
2019-01-30T03:21:07.899Z,5.00
2019-01-30T03:24:11.266Z,5.33
2019-01-30T03:27:14.638Z,5.03
2019-01-30T03:30:57.919Z,4.80
2019-01-30T03:34:01.300Z,5.30
2019-01-30T03:37:04.738Z,5.30
2019-01-30T03:40:48.218Z,5.37
2019-01-30T03:43:51.590Z,4.70
2019-01-30T03:46:55.054Z,4.80
2019-01-30T03:49:58.445Z,5.40
2019-01-30T03:53:01.814Z,4.80
2019-01-30T03:56:05.257Z,4.93
2019-01-30T03:59:08.630Z,4.90
2019-01-30T04:02:11.989Z,4.97
2019-01-30T04:05:15.436Z,5.00
2019-01-30T04:08:18.821Z,5.00
2019-01-30T04:11:22.175Z,4.67
2019-01-30T04:14:44.899Z,4.73
2019-01-30T04:17:48.337Z,5.03
2019-01-30T04:20:51.711Z,4.90
2019-01-30T04:23:55.100Z,4.87
2019-01-30T04:26:58.467Z,4.47
2019-01-30T04:30:01.839Z,5.03
2019-01-30T04:33:05.277Z,5.00
2019-01-30T04:36:08.750Z,5.10
2019-01-30T04:39:12.183Z,5.03
2019-01-30T04:42:15.543Z,4.80
2019-01-30T04:45:58.856Z,5.20
2019-01-30T04:49:21.569Z,5.17
2019-01-30T04:52:24.948Z,5.10
2019-01-30T04:55:28.319Z,4.77
2019-01-30T04:58:31.694Z,5.40
2019-01-30T05:01:35.070Z,5.23
2019-01-30T05:04:38.510Z,5.23
2019-01-30T05:07:41.956Z,4.80
2019-01-30T05:10:45.334Z,5.23
2019-01-30T05:13:48.709Z,5.63
2019-01-30T05:16:52.094Z,5.07
2019-01-30T05:19:55.453Z,5.60
2019-01-30T05:22:58.838Z,6.10
2019-01-30T05:26:02.289Z,5.10
2019-01-30T05:29:05.724Z,5.00
2019-01-30T05:32:09.108Z,5.13
2019-01-30T05:38:41.777Z,4.90
2019-01-30T05:41:45.147Z,5.33
2019-01-30T05:44:48.510Z,5.50
2019-01-30T05:47:51.896Z,5.27
2019-01-30T05:50:55.271Z,4.80
2019-01-30T05:53:58.676Z,5.67
2019-01-30T05:57:02.057Z,5.70
2019-01-30T06:00:45.330Z,5.33
2019-01-30T06:03:48.708Z,5.13
2019-01-30T06:06:52.100Z,5.83
2019-01-30T06:09:55.468Z,6.20
2019-01-30T06:13:18.182Z,5.53
2019-01-30T06:16:21.597Z,5.50
2019-01-30T06:19:24.932Z,5.47
2019-01-30T06:22:47.720Z,6.03
2019-01-30T06:26:10.446Z,6.23
2019-01-30T06:29:13.832Z,6.17
2019-01-30T06:32:21.901Z,6.37
2019-01-30T06:35:41.648Z,6.47
2019-01-30T06:38:45.033Z,6.70
2019-01-30T06:41:49.309Z,6.33
2019-01-30T06:44:52.689Z,6.57
2019-01-30T06:48:15.440Z,6.47
2019-01-30T06:51:18.815Z,6.47
2019-01-30T06:54:34.727Z,7.10
2019-01-30T06:57:38.171Z,7.67
2019-01-30T07:00:41.547Z,7.50
2019-01-30T07:03:44.976Z,7.67
2019-01-30T07:06:48.360Z,8.37
2019-01-30T07:09:51.732Z,9.10
2019-01-30T07:12:55.170Z,7.87
2019-01-30T07:15:58.546Z,8.17
2019-01-30T07:19:01.922Z,7.23
2019-01-30T07:22:05.281Z,7.97
2019-01-30T07:25:29.447Z,7.83
2019-01-30T07:28:32.814Z,7.57
2019-01-30T07:31:36.196Z,7.47
2019-01-30T07:34:39.590Z,7.93
2019-01-30T07:37:42.954Z,7.60
2019-01-30T07:40:46.341Z,8.40
2019-01-30T07:43:49.705Z,8.23
2019-01-30T07:46:53.086Z,8.40
2019-01-30T07:49:56.467Z,8.60
2019-01-30T07:52:59.901Z,8.33
2019-01-30T07:56:03.481Z,8.97
2019-01-30T07:59:06.942Z,8.73
2019-01-30T08:02:13.814Z,8.93
2019-01-30T08:05:17.268Z,9.37
2019-01-30T08:08:20.634Z,8.30
2019-01-30T08:11:24.019Z,10.00
2019-01-30T08:14:27.404Z,9.40
2019-01-30T08:17:30.817Z,9.73
2019-01-30T08:20:34.188Z,9.60
2019-01-30T08:23:38.540Z,9.50
2019-01-30T08:26:41.961Z,9.70
2019-01-30T08:29:45.661Z,9.23
2019-01-30T08:32:49.511Z,10.07
2019-01-30T08:35:52.881Z,8.60
2019-01-30T08:38:56.251Z,10.20
2019-01-30T08:41:59.635Z,9.93
2019-01-30T08:45:03.271Z,9.53
2019-01-30T08:48:06.648Z,9.70
2019-01-30T08:51:10.086Z,9.80
2019-01-30T08:54:13.457Z,10.07
2019-01-30T08:57:17.089Z,10.57
2019-01-30T09:00:25.700Z,9.83
2019-01-30T09:03:29.193Z,10.80
2019-01-30T09:06:32.540Z,10.63
2019-01-30T09:09:35.911Z,10.60
2019-01-30T09:12:39.348Z,10.80
2019-01-30T09:15:42.731Z,10.23
2019-01-30T09:18:46.107Z,9.70
2019-01-30T09:21:49.475Z,9.30
2019-01-30T09:24:52.858Z,8.60
2019-01-30T09:27:56.264Z,9.53
2019-01-30T09:30:59.615Z,9.00
2019-01-30T09:34:02.998Z,9.13
2019-01-30T09:37:06.395Z,9.00
2019-01-30T09:40:12.920Z,9.63
2019-01-30T09:43:23.233Z,9.20
2019-01-30T09:46:26.610Z,9.47
2019-01-30T09:49:29.983Z,9.60
2019-01-30T09:52:33.353Z,10.90
2019-01-30T09:55:36.739Z,9.90
2019-01-30T09:58:40.115Z,9.97
2019-01-30T10:01:43.555Z,9.90
2019-01-30T10:04:46.872Z,9.33
2019-01-30T10:07:50.238Z,9.83
2019-01-30T10:10:53.620Z,10.40
2019-01-30T10:13:57.002Z,9.70
2019-01-30T10:17:00.357Z,9.70
2019-01-30T10:20:04.905Z,9.10
2019-01-30T10:23:08.356Z,9.70
2019-01-30T10:26:11.738Z,9.03
2019-01-30T10:29:15.124Z,9.87
2019-01-30T10:32:18.503Z,9.60
2019-01-30T10:35:21.950Z,9.67
2019-01-30T10:38:25.363Z,9.83
2019-01-30T10:41:28.725Z,9.87
2019-01-30T10:44:32.212Z,10.07
2019-01-30T10:47:35.627Z,10.03
2019-01-30T10:50:39.044Z,9.27
2019-01-30T10:53:42.434Z,10.17
2019-01-30T10:56:45.818Z,9.47
2019-01-30T10:59:49.187Z,9.53
2019-01-30T11:02:52.620Z,10.23
2019-01-30T11:05:56.296Z,10.07
2019-01-30T11:08:59.659Z,9.70
2019-01-30T11:12:05.073Z,9.70
2019-01-30T11:15:12.095Z,10.07
2019-01-30T11:18:15.531Z,9.67
2019-01-30T11:21:18.908Z,9.63
2019-01-30T11:24:22.266Z,9.77
2019-01-30T11:27:26.609Z,9.90
2019-01-30T11:30:30.006Z,9.87
2019-01-30T11:33:33.369Z,9.33
2019-01-30T11:36:36.748Z,10.03
2019-01-30T11:39:40.198Z,10.47
2019-01-30T11:42:43.740Z,9.20
2019-01-30T11:45:47.359Z,10.17
2019-01-30T11:48:56.380Z,9.10
2019-01-30T11:51:55.874Z,9.50
2019-01-30T11:54:59.557Z,9.43
2019-01-30T11:58:03.021Z,10.03
2019-01-30T12:01:06.377Z,9.43
2019-01-30T12:04:17.729Z,8.90
2019-01-30T12:07:15.887Z,10.03
2019-01-30T12:10:19.265Z,9.53
2019-01-30T12:13:22.754Z,9.73
2019-01-30T12:16:26.107Z,10.07
2019-01-30T12:19:29.487Z,9.97
2019-01-30T12:22:32.874Z,10.53
2019-01-30T12:25:36.301Z,9.97
2019-01-30T12:28:40.648Z,10.50
2019-01-30T12:31:44.031Z,10.33
2019-01-30T12:34:47.402Z,10.20
2019-01-30T12:37:50.857Z,10.37
2019-01-30T12:40:54.221Z,16.93
2019-01-30T12:43:57.596Z,11.20
2019-01-30T12:47:01.976Z,11.40
2019-01-30T12:50:08.220Z,14.17
2019-01-30T12:53:11.707Z,13.73
2019-01-30T12:56:15.090Z,12.90
2019-01-30T12:59:18.488Z,12.87
2019-01-30T13:02:28.001Z,15.30
2019-01-30T13:05:31.613Z,13.00
2019-01-30T13:08:41.948Z,13.87
2019-01-30T13:11:45.365Z,16.63
2019-01-30T13:14:48.739Z,12.93
2019-01-30T13:17:59.553Z,13.53
2019-01-30T13:21:02.917Z,14.87
2019-01-30T13:24:06.650Z,12.93
2019-01-30T13:27:10.257Z,14.07
2019-01-30T13:30:19.925Z,16.30
2019-01-30T13:33:23.324Z,15.90
2019-01-30T13:36:26.696Z,17.67
2019-01-30T13:39:35.100Z,13.73
2019-01-30T13:42:38.474Z,14.40
2019-01-30T13:45:41.863Z,11.97
2019-01-30T13:48:45.263Z,13.23
2019-01-30T13:51:48.641Z,11.93
2019-01-30T13:54:52.087Z,12.67
2019-01-30T13:57:55.546Z,12.30
2019-01-30T14:00:58.937Z,11.73
2019-01-30T14:04:02.414Z,12.97
2019-01-30T14:07:05.802Z,12.37
2019-01-30T14:10:28.831Z,11.50
2019-01-30T14:13:32.203Z,10.90
2019-01-30T14:16:35.614Z,12.90
2019-01-30T14:19:38.972Z,12.60
2019-01-30T14:22:42.350Z,11.80
2019-01-30T14:26:05.061Z,13.40
2019-01-30T14:29:08.431Z,13.87
2019-01-30T14:32:11.811Z,11.80
2019-01-30T14:35:15.197Z,14.03
2019-01-30T14:38:18.565Z,14.00
2019-01-30T14:41:22.078Z,12.57
2019-01-30T14:44:25.710Z,11.97
2019-01-30T14:47:29.078Z,12.43
2019-01-30T14:50:32.528Z,12.93
2019-01-30T14:53:35.932Z,14.33
2019-01-30T14:56:58.644Z,12.57
2019-01-30T15:00:02.107Z,12.87
2019-01-30T15:03:47.448Z,12.23
2019-01-30T15:06:50.692Z,13.10
2019-01-30T15:09:54.070Z,13.13
2019-01-30T15:12:57.606Z,13.00
2019-01-30T15:16:00.985Z,12.63
2019-01-30T15:22:33.740Z,13.67
2019-01-30T15:25:37.105Z,14.00
2019-01-30T15:28:40.486Z,13.53
2019-01-30T15:31:43.854Z,13.00
2019-01-30T15:34:47.321Z,13.03
2019-01-30T15:37:50.715Z,14.43
2019-01-30T15:41:13.422Z,14.13
2019-01-30T15:44:16.807Z,12.53
2019-01-30T15:47:20.176Z,13.73
2019-01-30T15:51:03.467Z,14.17
2019-01-30T15:54:26.185Z,14.67
2019-01-30T15:57:29.562Z,16.23
2019-01-30T16:01:12.847Z,16.13
2019-01-30T16:04:17.550Z,15.63
2019-01-30T16:07:21.384Z,15.80
2019-01-30T16:10:24.905Z,16.30
2019-01-30T16:13:28.322Z,16.83
2019-01-30T16:16:31.683Z,15.67
2019-01-30T16:19:35.060Z,16.57
2019-01-30T16:22:38.432Z,16.53
2019-01-30T16:25:41.810Z,16.77
2019-01-30T16:28:45.230Z,17.47
2019-01-30T16:31:48.596Z,19.10
2019-01-30T16:34:51.985Z,18.87
2019-01-30T16:37:55.427Z,22.70
2019-01-30T16:40:58.806Z,21.70
2019-01-30T16:44:02.181Z,19.67
2019-01-30T16:47:05.634Z,20.70
2019-01-30T16:50:48.924Z,18.83
2019-01-30T16:53:52.301Z,23.07
2019-01-30T16:56:55.678Z,21.87
2019-01-30T16:59:59.066Z,23.27
2019-01-30T17:03:42.345Z,20.57
2019-01-30T17:06:45.744Z,19.57
2019-01-30T17:10:09.610Z,20.27
2019-01-30T17:13:12.995Z,19.63
2019-01-30T17:16:16.366Z,19.40
2019-01-30T17:19:19.732Z,19.97
2019-01-30T17:22:23.191Z,20.63
2019-01-30T17:25:26.799Z,19.03
2019-01-30T17:28:30.187Z,19.90
2019-01-30T17:31:33.567Z,20.10
2019-01-30T17:34:36.935Z,20.70
2019-01-30T17:37:40.592Z,19.30
2019-01-30T17:41:23.888Z,20.37
2019-01-30T17:44:27.264Z,21.40
2019-01-30T17:47:30.629Z,21.90
2019-01-30T17:50:34.009Z,21.67
2019-01-30T17:53:37.387Z,19.77
2019-01-30T17:56:40.771Z,20.43
2019-01-30T17:59:44.141Z,21.23
2019-01-30T18:02:47.527Z,20.47
2019-01-30T18:05:50.976Z,45.33
2019-01-30T18:08:54.354Z,27.67
2019-01-30T18:11:57.751Z,23.20
2019-01-30T18:15:01.131Z,21.03
2019-01-30T18:18:44.661Z,20.87
2019-01-30T18:21:48.043Z,18.83
2019-01-30T18:24:51.427Z,19.60
2019-01-30T18:27:55.088Z,20.00
2019-01-30T18:30:58.538Z,21.43
2019-01-30T18:34:01.937Z,21.23
2019-01-30T18:37:05.455Z,21.63
2019-01-30T18:40:48.788Z,21.50
2019-01-30T18:43:52.172Z,20.70
2019-01-30T18:46:55.561Z,20.27
2019-01-30T18:49:58.938Z,22.67
2019-01-30T18:53:02.314Z,21.30
2019-01-30T18:56:05.760Z,21.43
2019-01-30T18:59:09.162Z,20.80
2019-01-30T19:02:12.533Z,20.10
2019-01-30T19:05:55.824Z,20.30
2019-01-30T19:08:59.213Z,20.60
2019-01-30T19:12:02.603Z,20.03
2019-01-30T19:15:26.761Z,17.50
2019-01-30T19:18:37.823Z,17.33
2019-01-30T19:21:41.211Z,17.90
2019-01-30T19:24:44.587Z,17.73
2019-01-30T19:27:48.317Z,16.33
2019-01-30T19:30:51.694Z,14.43
2019-01-30T19:33:55.087Z,15.30
2019-01-30T19:37:17.886Z,15.97
2019-01-30T19:40:21.327Z,14.27
2019-01-30T19:43:25.010Z,12.87
2019-01-30T19:46:28.355Z,11.47
2019-01-30T19:49:31.739Z,12.07
2019-01-30T19:52:35.112Z,9.73
2019-01-30T19:55:38.477Z,9.30
2019-01-30T19:58:41.850Z,8.47
2019-01-30T20:01:45.213Z,6.73
2019-01-30T20:04:48.595Z,7.50
2019-01-30T20:07:52.036Z,7.10
2019-01-30T20:10:55.409Z,6.60
2019-01-30T20:13:59.200Z,5.60
2019-01-30T20:17:10.353Z,6.67
2019-01-30T20:20:16.329Z,6.90
2019-01-30T20:23:31.241Z,6.50
2019-01-30T20:26:34.611Z,6.60
2019-01-30T20:29:37.979Z,5.80
2019-01-30T20:32:53.362Z,6.40
2019-01-30T20:35:56.715Z,6.40
2019-01-30T20:39:00.086Z,6.47
2019-01-30T20:42:03.462Z,6.73
2019-01-30T20:45:10.271Z,6.07
2019-01-30T20:48:19.701Z,6.40
2019-01-30T20:51:23.078Z,6.20
2019-01-30T20:54:26.461Z,5.63
2019-01-30T20:57:29.828Z,6.43
2019-01-30T21:00:35.732Z,7.50
2019-01-30T21:03:39.112Z,7.23
2019-01-30T21:06:42.479Z,7.73
2019-01-30T21:09:45.863Z,6.70
2019-01-30T21:12:49.556Z,5.90
2019-01-30T21:15:52.919Z,5.87
2019-01-30T21:18:56.527Z,6.77
2019-01-30T21:21:59.891Z,5.47
2019-01-30T21:25:03.927Z,5.27
2019-01-30T21:28:07.375Z,6.30
2019-01-30T21:31:10.777Z,8.00
2019-01-30T21:34:14.123Z,7.70
2019-01-30T21:37:20.473Z,8.13
2019-01-30T21:40:22.672Z,8.27
2019-01-30T21:43:26.189Z,7.40
2019-01-30T21:46:29.485Z,7.73
2019-01-30T21:49:32.931Z,7.73
2019-01-30T21:52:36.309Z,7.87
2019-01-30T21:55:39.692Z,7.80
2019-01-30T21:58:43.068Z,6.87
2019-01-30T22:01:46.444Z,8.27
2019-01-30T22:04:49.830Z,8.40
2019-01-30T22:08:00.575Z,8.57
2019-01-30T22:10:58.326Z,8.57
2019-01-30T22:14:01.707Z,9.50
2019-01-30T22:17:05.146Z,9.90
2019-01-30T22:20:20.291Z,9.53
2019-01-30T22:23:23.672Z,8.90
2019-01-30T22:26:27.035Z,8.43
2019-01-30T22:29:33.575Z,8.73
2019-01-30T22:32:36.937Z,8.33
2019-01-30T22:35:40.327Z,8.50
2019-01-30T22:38:43.700Z,9.10
2019-01-30T22:41:47.068Z,9.07
2019-01-30T22:44:50.443Z,9.67
2019-01-30T22:47:53.814Z,8.87
2019-01-30T22:50:57.189Z,8.27
2019-01-30T22:54:00.572Z,8.30
2019-01-30T22:57:03.942Z,7.90
2019-01-30T23:00:57.704Z,7.67
2019-01-30T23:04:04.154Z,7.97
2019-01-30T23:07:16.228Z,7.30
2019-01-30T23:10:25.324Z,7.67
2019-01-30T23:13:34.514Z,7.43
2019-01-30T23:16:52.701Z,8.03
2019-01-30T23:19:59.180Z,8.33
2019-01-30T23:23:11.563Z,8.43
2019-01-30T23:26:20.995Z,8.37
2019-01-30T23:29:27.425Z,8.27
2019-01-30T23:32:51.907Z,8.73
2019-01-30T23:36:10.257Z,8.07
2019-01-30T23:39:37.830Z,6.90
2019-01-30T23:42:52.958Z,7.57
2019-01-30T23:46:17.059Z,6.67
2019-01-30T23:49:41.541Z,9.23
2019-01-30T23:53:04.498Z,9.70
2019-01-30T23:56:13.870Z,9.40
2019-01-30T23:59:26.217Z,8.97
